Time;durP1;ratioP1;P1;durP2;ratioP2;P2;SDS_P1;SDS_P2;PMS_P1;PMS_P2;Temp;Humidity;BMP_temperature;BMP_pressure;BME280_temperature;BME280_humidity;BME280_pressure;Samples;Min_cycle;Max_cycle;Signal;HPM_P1;HPM_P2
2023/06/30 00:00:47;;;;;;;3.42;2.10;;;17.00;91.40;;;15.89;82.56;99926.91;12346887;23;96443;-96
2023/06/30 00:05:51;;;;;;;2.75;2.22;;;17.00;91.60;;;15.82;83.02;99928.78;12324922;23;96676;-96
2023/06/30 00:10:55;;;;;;;3.28;1.85;;;16.90;91.80;;;15.81;83.00;99929.81;12324380;23;96855;-95
2023/06/30 00:15:59;;;;;;;5.35;2.30;;;16.80;91.90;;;15.81;82.56;99927.97;12323533;23;96555;-96
2023/06/30 00:21:03;;;;;;;2.60;2.22;;;16.80;91.90;;;15.77;83.14;99927.56;12347830;23;96437;-96
2023/06/30 00:26:07;;;;;;;2.58;1.98;;;16.90;92.10;;;15.76;82.88;99920.53;12347892;23;96446;-96
2023/06/30 00:31:11;;;;;;;2.92;2.25;;;16.90;92.20;;;15.69;83.12;99916.22;12353588;23;97078;-96
2023/06/30 00:36:14;;;;;;;11.10;2.22;;;16.80;92.30;;;15.60;83.82;99914.78;12348654;23;96402;-96
2023/06/30 00:41:18;;;;;;;2.55;2.25;;;16.70;92.50;;;15.53;84.12;99910.25;12357264;23;96476;-96
2023/06/30 00:46:22;;;;;;;3.42;2.30;;;16.60;92.70;;;15.51;84.18;99906.94;12347353;23;97052;-96
2023/06/30 00:51:26;;;;;;;2.88;2.30;;;16.60;92.90;;;15.57;84.20;99915.19;12324122;23;96963;-96
2023/06/30 00:56:29;;;;;;;4.65;2.50;;;16.60;93.00;;;15.50;85.15;99910.66;12347841;23;96499;-96
2023/06/30 01:01:47;;;;;;;5.47;2.75;;;16.60;93.10;;;15.50;85.21;99915.19;12322915;23;96483;-95
2023/06/30 01:07:04;;;;;;;3.50;2.65;;;16.50;93.40;;;15.48;85.22;99906.53;12347637;23;96440;-96
2023/06/30 01:12:08;;;;;;;4.07;2.53;;;16.60;93.50;;;15.47;85.66;99916.44;12346717;23;96406;-96
2023/06/30 01:17:13;;;;;;;3.63;2.63;;;16.60;93.70;;;15.42;85.87;99918.09;12346192;23;96738;-96
2023/06/30 01:22:24;;;;;;;3.67;2.40;;;16.50;93.90;;;15.34;86.49;99915.59;12324370;23;96544;-96
2023/06/30 01:27:29;;;;;;;2.83;2.53;;;16.40;94.10;;;15.27;86.71;99911.06;12371313;23;96694;-96
2023/06/30 01:32:33;;;;;;;5.65;2.40;;;16.40;94.30;;;15.23;87.24;99911.66;12346141;23;97236;-96
2023/06/30 01:37:37;;;;;;;3.67;2.35;;;16.30;94.60;;;15.15;87.66;99909.19;12346860;23;96368;-96
2023/06/30 01:42:41;;;;;;;3.47;2.50;;;16.20;94.90;;;15.10;88.12;99904.44;12324065;23;96455;-96
2023/06/30 01:47:46;;;;;;;4.90;2.17;;;16.10;95.20;;;15.07;87.93;99899.53;12346176;23;96379;-96
2023/06/30 01:52:50;;;;;;;7.07;2.25;;;16.10;95.40;;;15.06;88.00;99903.22;12346605;23;96413;-96
2023/06/30 01:57:54;;;;;;;3.55;2.60;;;16.10;95.50;;;15.01;87.89;99894.16;12346168;23;96623;-96
2023/06/30 02:02:57;;;;;;;3.75;2.90;;;16.10;95.60;;;14.98;88.23;99901.56;12344299;23;96707;-96
2023/06/30 02:08:01;;;;;;;3.25;2.38;;;16.10;95.80;;;14.92;88.43;99891.66;12344754;23;96942;-96
2023/06/30 02:13:05;;;;;;;3.85;2.22;;;16.00;96.00;;;14.88;89.08;99898.47;12345968;23;96662;-96
2023/06/30 02:18:08;;;;;;;3.22;2.60;;;15.90;96.20;;;14.84;89.47;99893.72;12345318;23;96480;-95
2023/06/30 02:23:12;;;;;;;5.05;2.70;;;15.90;96.50;;;14.76;89.71;99891.25;12345835;23;96440;-96
2023/06/30 02:28:16;;;;;;;4.05;2.70;;;15.80;96.70;;;14.72;89.61;99890.81;12346170;23;96349;-96
2023/06/30 02:33:20;;;;;;;6.45;3.00;;;15.80;96.90;;;14.69;90.09;99896.56;12323083;23;97014;-95
2023/06/30 02:38:24;;;;;;;3.65;2.90;;;15.80;97.10;;;14.57;90.86;99890.97;12369881;23;96867;-94
2023/06/30 02:43:28;;;;;;;3.67;2.83;;;15.70;97.40;;;14.55;91.25;99895.69;12354523;23;96778;-95
2023/06/30 02:48:31;;;;;;;4.05;2.83;;;15.60;97.70;;;14.42;92.02;99877.75;12383338;23;97309;-95
2023/06/30 02:53:36;;;;;;;5.00;4.22;;;15.60;98.10;;;14.48;92.58;99891.38;12323974;23;96472;-94
2023/06/30 02:58:39;;;;;;;4.60;3.67;;;15.50;98.40;;;14.45;92.48;99895.22;12346549;23;96524;-95
2023/06/30 03:03:43;;;;;;;5.57;3.53;;;15.60;98.60;;;14.46;92.82;99891.53;12346925;23;96769;-95
2023/06/30 03:08:47;;;;;;;5.18;3.22;;;15.60;98.80;;;14.45;93.08;99884.53;12346933;23;96664;-95
2023/06/30 03:13:52;;;;;;;6.88;3.55;;;15.60;99.10;;;14.49;93.53;99885.00;12371298;23;96456;-95
2023/06/30 03:18:55;;;;;;;10.65;3.10;;;15.60;99.30;;;14.50;93.69;99882.09;12372835;23;96689;-95
2023/06/30 03:23:59;;;;;;;4.50;2.97;;;15.60;99.50;;;14.50;94.38;99882.09;12371106;23;96512;-95
2023/06/30 03:29:03;;;;;;;3.08;2.50;;;15.60;99.80;;;14.56;94.55;99883.97;12325071;23;97065;-95
2023/06/30 03:34:07;;;;;;;6.30;2.60;;;15.70;99.90;;;14.58;95.05;99883.78;12346314;23;96484;-95
2023/06/30 03:39:11;;;;;;;4.70;2.55;;;15.70;99.90;;;14.71;95.33;99883.81;12347809;23;96656;-95
2023/06/30 03:44:15;;;;;;;4.15;2.80;;;15.80;99.90;;;14.86;95.41;99879.09;12345752;23;96587;-96
2023/06/30 03:49:19;;;;;;;5.40;2.97;;;15.90;99.90;;;15.01;95.44;99872.75;12355295;23;96536;-95
2023/06/30 03:54:23;;;;;;;4.75;2.58;;;16.10;99.90;;;15.14;94.97;99872.75;12346864;23;96858;-96
2023/06/30 03:59:26;;;;;;;7.18;2.58;;;16.20;99.90;;;15.32;95.25;99874.81;12346829;23;96954;-95
2023/06/30 04:04:30;;;;;;;3.85;2.97;;;16.30;99.90;;;15.47;94.79;99878.94;12323858;23;96644;-94
2023/06/30 04:09:35;;;;;;;5.47;2.70;;;16.50;99.90;;;15.64;94.08;99882.03;12346174;23;96520;-95
2023/06/30 04:14:39;;;;;;;5.38;2.75;;;16.70;99.90;;;15.75;93.40;99865.31;12344745;23;96424;-84
2023/06/30 04:19:42;;;;;;;3.85;2.53;;;16.80;99.90;;;15.92;93.23;99871.06;12344241;23;96817;-84
2023/06/30 04:24:46;;;;;;;2.33;1.95;;;17.00;99.90;;;16.06;92.35;99874.50;12342819;23;96851;-85
2023/06/30 04:29:49;;;;;;;3.35;2.55;;;17.10;99.90;;;16.21;91.36;99871.59;12342276;23;96440;-85
2023/06/30 04:34:54;;;;;;;2.92;2.60;;;17.30;99.90;;;16.36;91.07;99877.47;12339023;23;96844;-84
2023/06/30 04:39:59;;;;;;;3.85;2.60;;;17.30;99.90;;;16.50;89.69;99868.34;12367324;23;96344;-84
2023/06/30 04:45:05;;;;;;;6.65;2.53;;;17.50;99.90;;;16.68;88.42;99864.94;12342681;23;96860;-84
2023/06/30 04:50:09;;;;;;;4.38;3.10;;;17.70;99.80;;;16.82;87.35;99866.53;12320452;23;97005;-84
2023/06/30 04:55:12;;;;;;;5.60;3.47;;;17.90;99.60;;;17.02;87.54;99860.19;12343481;23;96411;-85
2023/06/30 05:00:16;;;;;;;6.40;4.15;;;18.00;99.50;;;17.18;86.61;99858.84;12368381;23;96366;-84
2023/06/30 05:05:20;;;;;;;7.47;3.88;;;18.20;99.30;;;17.36;86.45;99857.03;12343504;23;96767;-84
2023/06/30 05:10:23;;;;;;;11.75;3.65;;;18.40;99.30;;;17.59;86.07;99860.97;12368184;23;96432;-85
2023/06/30 05:15:27;;;;;;;6.43;3.50;;;18.60;99.00;;;17.79;85.48;99861.59;12319882;23;96735;-84
2023/06/30 05:20:32;;;;;;;4.97;3.00;;;18.80;98.70;;;17.97;84.44;99854.59;12320798;23;96424;-84
2023/06/30 05:25:35;;;;;;;4.68;3.13;;;19.00;98.60;;;18.13;83.52;99849.44;12342145;23;96750;-83
2023/06/30 05:30:40;;;;;;;5.28;3.25;;;19.20;98.40;;;18.37;84.10;99860.31;12318572;23;96477;-84
2023/06/30 05:35:43;;;;;;;8.48;3.35;;;19.40;98.20;;;18.53;81.75;99848.06;12343345;23;96590;-84
2023/06/30 05:40:47;;;;;;;10.07;3.90;;;19.60;97.70;;;18.69;80.87;99844.78;12342607;23;96356;-86
2023/06/30 05:45:51;;;;;;;5.97;3.75;;;19.70;97.20;;;18.85;80.12;99852.22;12341757;23;96792;-86
2023/06/30 05:50:55;;;;;;;4.97;2.90;;;19.90;97.00;;;19.10;79.88;99853.88;12327746;23;96409;-86
2023/06/30 05:55:58;;;;;;;6.57;3.50;;;20.10;96.80;;;19.27;78.04;99851.34;12343446;23;96628;-87
2023/06/30 06:01:02;;;;;;;6.07;3.92;;;20.30;96.50;;;19.55;78.16;99847.94;12368657;23;96905;-86
2023/06/30 06:06:06;;;;;;;7.00;3.33;;;20.60;96.30;;;19.78;77.49;99847.94;12340176;23;96393;-86
2023/06/30 06:11:10;;;;;;;8.88;3.58;;;20.80;95.90;;;20.00;77.11;99848.16;12344549;23;96543;-86
2023/06/30 06:16:13;;;;;;;5.13;2.97;;;21.00;95.60;;;20.26;75.72;99846.78;12320740;23;96454;-86
2023/06/30 06:21:18;;;;;;;7.22;3.40;;;21.30;95.70;;;20.56;75.53;99855.50;12345996;23;96380;-86
2023/06/30 06:26:21;;;;;;;7.18;3.58;;;21.60;95.40;;;20.79;73.64;99837.53;12344312;23;96478;-87
2023/06/30 06:31:27;;;;;;;6.38;3.40;;;21.80;94.70;;;21.00;73.32;99831.44;12321830;23;96422;-87
2023/06/30 06:36:30;;;;;;;7.47;3.20;;;22.10;94.40;;;21.26;71.13;99839.94;12323310;23;96623;-87
2023/06/30 06:41:34;;;;;;;7.10;3.08;;;22.30;93.90;;;21.46;69.83;99820.53;12321778;23;96423;-87
2023/06/30 06:46:38;;;;;;;8.30;3.05;;;22.50;93.40;;;21.76;69.63;99825.56;12344467;23;96760;-87
2023/06/30 06:51:42;;;;;;;5.50;3.10;;;22.70;93.20;;;22.02;69.31;99824.81;12345654;23;96915;-87
2023/06/30 06:56:47;;;;;;;5.93;3.00;;;23.10;92.90;;;22.24;67.71;99822.13;12344916;23;96454;-87
2023/06/30 07:01:50;;;;;;;6.05;2.78;;;23.30;92.30;;;22.39;66.39;99816.88;12358422;23;96871;-88
2023/06/30 07:06:54;;;;;;;7.13;2.95;;;23.50;91.70;;;22.57;65.89;99818.41;12337966;23;97023;-86
2023/06/30 07:11:58;;;;;;;5.43;2.60;;;23.60;91.40;;;22.79;65.04;99812.94;12340814;23;96885;-87
2023/06/30 07:17:02;;;;;;;6.35;2.53;;;23.80;91.10;;;23.00;64.20;99810.44;12343905;23;97596;-87
2023/06/30 07:22:05;;;;;;;7.03;2.80;;;24.00;90.60;;;23.13;63.88;99808.09;12319158;23;96763;-87
2023/06/30 07:27:09;;;;;;;6.57;2.72;;;24.20;90.40;;;23.39;63.22;99811.81;12344333;23;96403;-87
2023/06/30 07:32:13;;;;;;;6.10;2.70;;;24.50;89.80;;;23.60;61.91;99801.06;12320604;23;96666;-87
2023/06/30 07:37:19;;;;;;;4.00;2.47;;;24.70;88.90;;;23.86;61.08;99796.59;12340033;23;96742;-87
2023/06/30 07:42:23;;;;;;;4.47;2.70;;;24.90;87.90;;;24.11;59.56;99793.16;12344782;23;96530;-87
2023/06/30 07:47:26;;;;;;;6.60;2.75;;;25.10;86.70;;;24.24;58.87;99795.41;12319152;23;97469;-87
2023/06/30 07:52:30;;;;;;;5.95;2.22;;;25.20;85.60;;;24.37;55.94;99786.75;12318383;23;96708;-87
2023/06/30 07:57:34;;;;;;;5.32;2.03;;;25.40;83.00;;;24.54;54.67;99781.91;12317856;23;96698;-87
2023/06/30 08:02:38;;;;;;;3.20;1.75;;;25.50;81.70;;;24.71;50.64;99783.53;12319383;23;96771;-87
2023/06/30 08:07:42;;;;;;;5.18;3.25;;;25.80;79.20;;;24.97;51.35;99765.34;12321017;23;97406;-87
2023/06/30 08:12:53;;;;;;;4.72;2.22;;;25.90;78.60;;;25.27;50.19;99764.50;12350474;23;97144;-87
2023/06/30 08:17:57;;;;;;;2.97;1.15;;;26.30;77.00;;;25.50;46.73;99763.09;12344112;23;97022;-87
2023/06/30 08:23:01;;;;;;;29.77;9.50;;;26.50;73.70;;;25.58;47.59;99763.31;12342977;23;96536;-88
2023/06/30 08:28:05;;;;;;;5.75;2.10;;;26.50;72.70;;;25.55;44.46;99760.31;12343799;23;96455;-87
2023/06/30 08:33:08;;;;;;;7.05;2.92;;;26.60;70.60;;;25.56;44.47;99764.69;12321936;23;96434;-87
2023/06/30 08:38:12;;;;;;;4.63;1.65;;;26.60;69.70;;;25.56;44.92;99761.97;12343625;23;96524;-87
2023/06/30 08:43:20;;;;;;;2.55;1.30;;;26.60;69.90;;;25.54;43.34;99759.50;12320303;23;97070;-87
2023/06/30 08:48:24;;;;;;;20.10;4.65;;;26.50;67.50;;;25.73;44.42;99762.50;12343781;23;96749;-88
2023/06/30 08:53:30;;;;;;;2.92;1.33;;;26.70;67.90;;;25.86;43.83;99751.00;12345623;23;96680;-87
2023/06/30 08:58:34;;;;;;;5.22;1.90;;;26.90;67.40;;;26.03;43.19;99749.81;12346501;23;96450;-88
2023/06/30 09:03:38;;;;;;;6.13;2.15;;;27.00;67.40;;;26.14;43.17;99748.66;12344012;23;96449;-88
2023/06/30 09:08:50;;;;;;;6.85;2.67;;;27.10;66.60;;;26.24;43.02;99739.63;12344121;23;97495;-88
2023/06/30 09:14:00;;;;;;;20.58;5.82;;;27.30;65.70;;;26.30;41.73;99738.50;12343420;23;96647;-87
2023/06/30 09:19:04;;;;;;;122.45;31.25;;;27.40;64.90;;;26.50;41.69;99734.81;12347758;23;96420;-86
2023/06/30 09:24:08;;;;;;;11.32;4.80;;;27.50;64.30;;;26.49;41.12;99711.41;12367866;23;96907;-87
2023/06/30 09:29:12;;;;;;;167.05;46.22;;;27.60;63.90;;;26.52;41.63;99719.03;12343211;23;96840;-87
2023/06/30 09:34:19;;;;;;;48.28;14.68;;;27.60;64.30;;;26.73;42.14;99714.22;12366008;23;96374;-88
2023/06/30 09:39:23;;;;;;;9.07;4.30;;;27.70;64.50;;;26.88;41.13;99706.72;12366016;23;96475;-87
2023/06/30 09:44:36;;;;;;;11.68;4.47;;;27.90;63.90;;;26.95;41.25;99715.34;12343248;23;96549;-87
2023/06/30 09:49:43;;;;;;;2.90;1.70;;;28.00;63.30;;;26.98;40.28;99702.25;12345136;23;96499;-87
2023/06/30 09:54:48;;;;;;;4.60;2.25;;;28.10;62.50;;;27.06;41.99;99707.13;12343627;23;96434;-86
2023/06/30 09:59:52;;;;;;;8.77;3.45;;;28.10;63.20;;;27.24;41.36;99703.66;12343556;23;96457;-86
2023/06/30 10:04:56;;;;;;;4.57;2.22;;;28.30;63.40;;;27.35;40.56;99698.84;12343195;23;96731;-87
2023/06/30 10:10:02;;;;;;;11.05;3.80;;;28.40;63.00;;;27.50;41.05;99703.34;12343309;23;96449;-87
2023/06/30 10:15:10;;;;;;;13.25;4.53;;;28.60;62.50;;;27.68;39.36;99703.38;12343755;23;96528;-87
2023/06/30 10:20:15;;;;;;;404.33;116.38;;;28.70;61.40;;;27.64;39.74;99704.25;12341241;23;97277;-88
2023/06/30 10:25:21;;;;;;;39.28;12.05;;;28.80;61.20;;;27.85;39.80;99694.72;12341362;23;96313;-87
2023/06/30 10:30:25;;;;;;;7.15;3.05;;;28.90;60.40;;;27.82;37.90;99692.56;12363745;23;96432;-87
2023/06/30 10:35:31;;;;;;;3.72;1.70;;;29.00;58.80;;;27.73;38.24;99689.69;12342085;23;96353;-87
2023/06/30 10:40:35;;;;;;;4.55;1.80;;;28.90;58.90;;;27.80;39.13;99680.31;12343221;23;96468;-86
2023/06/30 10:46:07;;;;;;;6.22;1.90;;;28.90;59.50;;;28.02;39.50;99685.22;12341904;23;96670;-86
2023/06/30 10:51:15;;;;;;;11.35;3.13;;;29.10;60.50;;;28.06;40.01;99683.47;12342910;23;96529;-87
2023/06/30 10:56:22;;;;;;;5.57;1.90;;;29.20;60.50;;;28.15;38.95;99681.72;12319276;23;96442;-87
2023/06/30 11:01:27;;;;;;;2.42;1.55;;;29.20;59.70;;;28.20;37.50;99676.19;12343287;23;96755;-86
2023/06/30 11:06:34;;;;;;;1.92;1.27;;;29.30;58.70;;;28.22;37.48;99674.75;12369147;23;96367;-86
2023/06/30 11:11:51;;;;;;;6.68;2.63;;;29.40;58.50;;;28.22;37.85;99665.75;12345896;23;96391;-86
2023/06/30 11:17:06;;;;;;;10.23;3.42;;;29.30;57.90;;;28.41;38.00;99660.28;12344678;23;96509;-87
2023/06/30 11:22:32;;;;;;;3.35;1.70;;;29.50;58.10;;;28.56;36.57;99660.03;12343945;23;96576;-87
2023/06/30 11:27:36;;;;;;;2.50;1.33;;;29.70;56.60;;;28.49;37.61;99641.31;12344792;23;96564;-87
2023/06/30 11:32:40;;;;;;;8.73;4.95;;;29.70;57.30;;;28.69;37.64;99633.84;12344987;23;96606;-87
2023/06/30 11:37:52;;;;;;;4.80;1.85;;;29.80;57.60;;;28.89;37.57;99633.44;12344966;23;96670;-86
2023/06/30 11:42:55;;;;;;;4.22;1.50;;;30.00;57.80;;;28.84;36.74;99628.06;12345169;23;96517;-86
2023/06/30 11:48:00;;;;;;;3.00;1.60;;;30.00;56.90;;;28.49;37.54;99616.72;12344507;23;96423;-87
2023/06/30 11:53:03;;;;;;;4.47;1.48;;;29.70;57.40;;;28.41;38.11;99620.09;12344235;23;96613;-87
2023/06/30 11:58:08;;;;;;;2.40;1.70;;;29.60;58.20;;;28.57;37.17;99608.91;12344965;23;96808;-86
2023/06/30 12:03:17;;;;;;;1.60;1.20;;;29.60;57.30;;;28.64;37.78;99610.13;12344526;23;97300;-86
2023/06/30 12:08:21;;;;;;;4.60;1.27;;;29.80;57.50;;;28.79;37.06;99607.13;12345313;23;96465;-86
2023/06/30 12:13:29;;;;;;;2.03;1.20;;;30.00;57.20;;;28.99;36.63;99605.94;12320315;23;96525;-86
2023/06/30 12:18:36;;;;;;;1.70;1.08;;;30.40;56.70;;;29.31;36.90;99601.44;12322152;23;96489;-87
2023/06/30 12:23:45;;;;;;;2.93;1.23;;;30.90;56.40;;;29.65;35.20;99590.06;12343405;23;96352;-88
2023/06/30 12:28:49;;;;;;;1.65;1.17;;;31.40;55.00;;;29.90;35.74;99579.63;12344174;23;96457;-87
2023/06/30 12:33:56;;;;;;;2.30;1.30;;;31.90;54.40;;;30.25;34.00;99570.53;12343297;23;96861;-87
2023/06/30 12:38:59;;;;;;;4.20;1.70;;;32.40;53.40;;;30.45;33.34;99569.19;12345340;23;96390;-87
2023/06/30 12:44:03;;;;;;;2.97;1.30;;;32.50;52.40;;;30.28;33.51;99566.34;12344138;23;96550;-88
2023/06/30 12:49:07;;;;;;;1.67;1.10;;;32.10;52.20;;;30.12;34.01;99565.94;12321617;23;96484;-87
2023/06/30 12:54:11;;;;;;;1.80;1.05;;;31.70;53.00;;;30.07;33.38;99566.03;12343990;23;96476;-89
2023/06/30 12:59:16;;;;;;;3.17;1.42;;;31.50;52.50;;;29.82;34.57;99571.03;12343112;23;96475;-88
2023/06/30 13:04:19;;;;;;;2.63;1.60;;;31.00;53.70;;;29.88;34.17;99549.00;12342720;23;96544;-88
2023/06/30 13:09:23;;;;;;;6.05;1.58;;;31.00;53.60;;;30.15;34.83;99548.88;12343475;23;96543;-88
2023/06/30 13:14:26;;;;;;;3.95;1.48;;;31.20;54.20;;;30.44;34.88;99545.63;12341630;23;96775;-88
2023/06/30 13:19:30;;;;;;;3.20;1.45;;;31.70;54.20;;;30.68;34.59;99534.31;12317431;23;97237;-88
2023/06/30 13:24:34;;;;;;;5.43;1.33;;;32.20;53.90;;;30.82;33.60;99528.69;12365099;23;97008;-89
2023/06/30 13:29:51;;;;;;;1.95;1.15;;;32.60;52.70;;;31.06;33.36;99518.09;12341826;23;96393;-88
2023/06/30 13:34:55;;;;;;;1.53;1.10;;;32.70;52.50;;;31.57;31.56;99515.75;12343234;23;96560;-88
2023/06/30 13:39:58;;;;;;;2.25;1.13;;;32.90;51.70;;;31.99;32.34;99502.31;12343756;23;96525;-88
2023/06/30 13:45:02;;;;;;;5.57;1.25;;;33.00;51.90;;;32.29;31.04;99504.00;12343130;23;97369;-88
2023/06/30 13:50:06;;;;;;;3.22;1.20;;;33.20;51.10;;;32.20;30.62;99492.22;12365495;23;96510;-88
2023/06/30 13:55:10;;;;;;;2.25;1.23;;;32.90;50.50;;;32.08;30.82;99484.66;12341922;23;96510;-88
2023/06/30 14:00:14;;;;;;;1.85;1.48;;;32.80;50.80;;;31.77;31.94;99486.81;12342868;23;96471;-88
2023/06/30 14:05:17;;;;;;;3.00;1.17;;;32.60;51.50;;;31.44;31.47;99479.91;12318019;23;96850;-87
2023/06/30 14:10:22;;;;;;;2.30;1.20;;;32.40;51.30;;;31.33;31.68;99466.81;12319638;23;96533;-88
2023/06/30 14:15:26;;;;;;;4.53;1.40;;;32.30;51.80;;;30.98;31.07;99460.50;12318701;23;96448;-88
2023/06/30 14:20:29;;;;;;;3.85;1.23;;;32.10;50.00;;;30.65;31.69;99458.97;12341792;23;96728;-88
2023/06/30 14:25:33;;;;;;;3.30;1.23;;;31.70;50.40;;;30.38;31.98;99456.44;12342096;23;96751;-88
2023/06/30 14:30:37;;;;;;;2.92;1.30;;;31.50;50.40;;;30.24;33.34;99447.53;12342260;23;97152;-88
2023/06/30 14:35:41;;;;;;;4.18;1.20;;;31.30;51.70;;;30.49;32.67;99435.84;12341765;23;96550;-87
2023/06/30 14:40:45;;;;;;;2.47;1.27;;;31.60;51.40;;;30.72;32.79;99425.59;12371873;23;96497;-88
2023/06/30 14:45:49;;;;;;;3.50;1.30;;;31.90;50.80;;;30.95;32.50;99426.28;12342927;23;96790;-89
2023/06/30 14:50:52;;;;;;;3.25;1.30;;;32.30;50.70;;;31.15;31.62;99406.44;12345246;23;96452;-90
2023/06/30 14:55:57;;;;;;;2.63;1.25;;;32.70;50.30;;;31.39;31.60;99403.19;12322085;23;96443;-88
2023/06/30 15:01:00;;;;;;;3.80;1.30;;;33.10;49.90;;;31.29;32.01;99391.75;12344332;23;96719;-88
2023/06/30 15:06:04;;;;;;;2.75;1.20;;;33.20;50.10;;;31.63;31.39;99385.38;12320590;23;96632;-88
2023/06/30 15:11:08;;;;;;;1.42;1.00;;;33.30;49.60;;;31.82;31.22;99382.28;12344854;23;96683;-88
2023/06/30 15:16:12;;;;;;;2.47;1.13;;;33.20;49.50;;;32.03;30.54;99376.84;12350190;23;97474;-89
2023/06/30 15:21:16;;;;;;;2.03;1.30;;;33.30;49.10;;;32.15;30.23;99377.78;12346846;23;96569;-88
2023/06/30 15:26:20;;;;;;;1.70;1.30;;;33.30;49.00;;;32.08;29.70;99380.22;12344961;23;96447;-88
2023/06/30 15:31:23;;;;;;;1.85;1.15;;;33.50;48.40;;;31.67;29.40;99375.38;12344541;23;96530;-87
2023/06/30 15:36:27;;;;;;;1.42;0.95;;;33.40;47.80;;;31.42;30.54;99366.84;12342938;23;96899;-87
2023/06/30 15:41:31;;;;;;;2.25;1.23;;;33.20;48.20;;;31.47;31.32;99363.13;12365719;23;96467;-87
2023/06/30 15:46:35;;;;;;;3.60;1.23;;;33.20;48.70;;;31.87;31.16;99365.63;12343402;23;96573;-87
2023/06/30 15:51:40;;;;;;;4.75;1.60;;;33.60;49.00;;;31.95;31.00;99359.28;12344746;23;96379;-87
2023/06/30 15:56:43;;;;;;;2.35;1.30;;;33.70;48.60;;;31.93;30.32;99356.06;12344331;23;96533;-87
2023/06/30 16:01:47;;;;;;;2.13;1.00;;;33.60;48.40;;;31.94;30.53;99343.94;12320991;23;96563;-88
2023/06/30 16:06:51;;;;;;;1.63;1.02;;;33.50;48.40;;;32.11;30.44;99343.84;12321434;23;96608;-88
2023/06/30 16:11:54;;;;;;;4.22;1.13;;;33.60;48.60;;;32.27;30.08;99348.75;12321942;23;96464;-88
2023/06/30 16:16:58;;;;;;;2.78;1.40;;;33.70;48.40;;;32.16;30.24;99346.41;12343651;23;96571;-88
2023/06/30 16:22:02;;;;;;;2.35;1.35;;;33.50;48.40;;;32.07;29.90;99340.13;12344008;23;96408;-88
2023/06/30 16:27:05;;;;;;;2.28;1.17;;;33.30;48.20;;;31.88;30.84;99339.75;12342421;23;96541;-88
2023/06/30 16:32:09;;;;;;;3.72;1.15;;;32.90;48.80;;;31.41;31.75;99329.56;12321212;23;96454;-88
2023/06/30 16:37:13;;;;;;;2.67;1.40;;;32.50;49.70;;;30.99;31.63;99330.41;12344337;23;96368;-88
2023/06/30 16:42:16;;;;;;;3.00;1.00;;;32.20;49.70;;;30.66;32.31;99322.66;12343880;23;96452;-88
2023/06/30 16:47:21;;;;;;;2.10;1.30;;;31.70;50.20;;;30.42;32.95;99341.50;12368670;23;96551;-88
2023/06/30 16:52:25;;;;;;;2.90;1.50;;;31.50;50.50;;;30.33;33.36;99328.59;12320647;23;96720;-88
2023/06/30 16:57:29;;;;;;;5.75;1.63;;;31.50;50.80;;;30.37;33.86;99326.03;12320831;23;96595;-88
2023/06/30 17:02:33;;;;;;;2.88;1.30;;;31.50;51.30;;;30.38;34.09;99335.84;12344806;23;96523;-87
2023/06/30 17:07:37;;;;;;;5.43;1.38;;;31.50;51.40;;;30.31;34.39;99332.78;12343865;23;96496;-88
2023/06/30 17:12:41;;;;;;;4.75;1.38;;;31.50;51.50;;;30.14;34.29;99339.03;12343115;23;96469;-87
2023/06/30 17:17:45;;;;;;;3.88;1.13;;;31.40;51.70;;;29.93;35.00;99343.44;12341490;23;96807;-87
2023/06/30 17:22:48;;;;;;;4.55;1.50;;;31.20;52.40;;;29.67;35.37;99329.63;12347870;23;96525;-88
2023/06/30 17:27:53;;;;;;;2.88;1.52;;;30.80;52.90;;;29.44;35.93;99337.06;12327483;23;97388;-87
2023/06/30 17:32:57;;;;;;;3.47;1.48;;;30.60;53.40;;;28.96;36.45;99326.78;12373093;23;96430;-87
2023/06/30 17:38:00;;;;;;;3.13;1.30;;;30.20;53.30;;;28.65;36.79;99337.59;12364914;23;96702;-88
2023/06/30 17:43:04;;;;;;;5.05;1.42;;;29.90;53.70;;;28.36;37.69;99335.22;12340245;23;96579;-87
2023/06/30 17:48:08;;;;;;;2.42;1.40;;;29.50;54.40;;;28.11;38.63;99339.28;12341314;23;96685;-87
2023/06/30 17:53:12;;;;;;;3.85;1.45;;;29.20;55.20;;;27.82;39.75;99337.66;12319914;23;96532;-87
2023/06/30 17:58:16;;;;;;;3.35;1.30;;;28.90;56.00;;;27.50;40.34;99343.16;12340402;23;96911;-87
2023/06/30 18:03:19;;;;;;;2.80;1.30;;;28.60;57.20;;;27.19;41.52;99330.06;12316425;23;96552;-87
2023/06/30 18:08:24;;;;;;;4.47;1.50;;;28.20;57.30;;;26.83;42.85;99341.50;12342316;23;96853;-87
2023/06/30 18:13:27;;;;;;;5.82;1.75;;;27.90;58.40;;;26.38;43.73;99337.47;12345756;23;96416;-87
2023/06/30 18:18:31;;;;;;;2.35;1.52;;;27.50;59.20;;;25.94;44.68;99332.31;12345259;23;96391;-87
2023/06/30 18:23:35;;;;;;;4.78;2.00;;;27.10;60.10;;;25.59;45.57;99337.81;12345563;23;96465;-87
2023/06/30 18:28:38;;;;;;;2.53;1.42;;;26.70;60.60;;;25.29;46.24;99347.06;12344860;23;96520;-87
2023/06/30 18:33:42;;;;;;;2.67;1.50;;;26.30;61.20;;;25.08;46.78;99341.00;12345282;23;96449;-88
2023/06/30 18:38:45;;;;;;;7.10;1.52;;;26.10;61.50;;;24.91;46.94;99339.75;12347132;23;96808;-88
2023/06/30 18:43:50;;;;;;;4.68;1.55;;;25.90;61.80;;;24.77;47.34;99353.97;12369113;23;96618;-87
2023/06/30 18:48:58;;;;;;;2.33;1.50;;;25.80;62.30;;;24.61;47.28;99355.16;12346478;23;96592;-88
2023/06/30 18:54:03;;;;;;;;;;;25.60;62.50;;;24.41;47.61;99349.81;12347064;23;96798;-88
2023/06/30 18:59:07;;;;;;;4.88;1.73;;;25.50;62.70;;;24.28;47.92;99373.75;12366876;23;96990;-88
2023/06/30 19:04:11;;;;;;;3.05;1.60;;;25.30;62.70;;;24.06;48.44;99378.72;12344511;23;96405;-88
2023/06/30 19:09:15;;;;;;;3.03;1.65;;;25.10;63.10;;;23.92;48.32;99396.66;12343849;23;96518;-88
2023/06/30 19:14:21;;;;;;;3.00;1.63;;;24.90;63.50;;;23.84;48.81;99386.38;12342712;23;96977;-88
2023/06/30 19:19:27;;;;;;;2.80;1.85;;;24.80;63.70;;;23.76;49.38;99388.56;12368009;23;96868;-88
2023/06/30 19:24:31;;;;;;;3.50;1.52;;;24.70;64.00;;;23.68;49.73;99389.09;12344581;23;96370;-88
2023/06/30 19:29:35;;;;;;;2.42;1.83;;;24.70;64.40;;;23.54;50.81;99390.72;12319079;23;96563;-88
2023/06/30 19:34:39;;;;;;;3.22;1.67;;;24.50;65.10;;;23.38;51.50;99391.81;12343978;23;96812;-87
2023/06/30 19:39:44;;;;;;;3.70;1.80;;;24.30;66.00;;;23.17;53.03;99393.72;12343953;23;96852;-87
2023/06/30 19:44:48;;;;;;;5.50;2.00;;;24.10;67.00;;;22.93;54.26;99396.13;12320630;23;96622;-87
2023/06/30 19:49:51;;;;;;;5.63;2.17;;;23.90;68.00;;;22.62;55.68;99371.66;12342345;23;96455;-87
2023/06/30 19:54:55;;;;;;;7.45;2.65;;;23.60;69.30;;;22.51;56.76;99388.97;12343469;23;96625;-87
2023/06/30 19:59:59;;;;;;;7.60;2.47;;;23.40;70.50;;;22.34;58.46;99399.16;12320210;23;96883;-87
2023/06/30 20:05:03;;;;;;;6.65;2.30;;;23.20;71.30;;;22.08;59.31;99396.31;12320207;23;96430;-87
2023/06/30 20:10:08;;;;;;;3.28;2.20;;;23.10;72.30;;;21.92;60.51;99400.81;12343974;23;97237;-87
2023/06/30 20:15:11;;;;;;;5.97;2.28;;;22.80;73.10;;;21.79;61.22;99414.00;12366399;23;96911;-87
2023/06/30 20:20:15;;;;;;;4.68;2.13;;;22.70;74.00;;;21.59;62.52;99404.69;12319989;23;96485;-86
2023/06/30 20:25:19;;;;;;;4.53;2.70;;;22.50;74.50;;;21.44;63.78;99415.34;12342561;23;96566;-87
2023/06/30 20:30:22;;;;;;;5.13;2.35;;;22.40;75.60;;;21.25;64.16;99414.91;12342723;23;97119;-87
2023/06/30 20:35:26;;;;;;;7.25;2.70;;;22.10;76.20;;;21.08;64.96;99411.50;12341305;23;96463;-87
2023/06/30 20:40:30;;;;;;;4.97;3.28;;;22.00;76.80;;;20.99;65.13;99421.13;12340178;23;96711;-87
2023/06/30 20:45:34;;;;;;;4.32;3.03;;;21.90;77.20;;;20.94;64.95;99416.50;12318906;23;97009;-87
2023/06/30 20:50:37;;;;;;;5.88;2.85;;;21.80;77.50;;;20.89;65.93;99418.31;12343253;23;96639;-87
2023/06/30 20:55:41;;;;;;;7.07;3.25;;;21.80;77.70;;;20.75;66.37;99415.19;12366786;23;96366;-87
2023/06/30 21:00:45;;;;;;;3.88;2.60;;;21.70;78.30;;;20.68;67.40;99419.97;12319264;23;96706;-87
2023/06/30 21:05:49;;;;;;;3.25;2.40;;;21.60;79.00;;;20.53;67.60;99410.66;12368491;23;96425;-87